createdAt,value
2023-03-21T00:01:22.576Z,100477.59
2023-03-21T00:06:25.608Z,100479.56
2023-03-21T00:11:29.776Z,100480.53
2023-03-21T00:16:34.993Z,100487.03
2023-03-21T00:21:51.902Z,100479.19
2023-03-21T00:27:15.841Z,100478.56
2023-03-21T00:32:23.300Z,100473.44
2023-03-21T00:37:28.249Z,100464.66
2023-03-21T00:42:32.678Z,100472.94
2023-03-21T00:47:35.550Z,100464.41
2023-03-21T00:52:41.344Z,100462.69
2023-03-21T00:57:50.214Z,100465.72
2023-03-21T01:03:17.586Z,100458.88
2023-03-21T01:08:31.246Z,100454.94
2023-03-21T01:13:44.179Z,100457.97
2023-03-21T01:18:59.592Z,100454.69
2023-03-21T01:24:02.636Z,100462.25
2023-03-21T01:29:06.739Z,100451.13
2023-03-21T01:34:09.568Z,100461.59
2023-03-21T01:39:12.780Z,100460.22
2023-03-21T01:44:17.806Z,100459.72
2023-03-21T01:49:26.039Z,100466.28
2023-03-21T01:54:38.517Z,100463.09
2023-03-21T01:59:44.467Z,100467.09
2023-03-21T02:04:59.490Z,100462.94
2023-03-21T02:10:07.753Z,100466.81
2023-03-21T02:15:12.627Z,100462.66
2023-03-21T02:20:49.505Z,100457.00
2023-03-21T02:26:28.491Z,100444.13
2023-03-21T02:31:41.817Z,100440.59
2023-03-21T02:36:56.286Z,100437.53
2023-03-21T02:42:03.696Z,100442.97
2023-03-21T02:47:11.086Z,100439.69
2023-03-21T02:52:28.615Z,100438.94
2023-03-21T02:57:42.670Z,100436.50
2023-03-21T03:02:54.544Z,100435.97
2023-03-21T03:08:14.226Z,100427.06
2023-03-21T03:13:23.117Z,100433.72
2023-03-21T03:18:29.141Z,100440.78
2023-03-21T03:23:36.703Z,100433.00
2023-03-21T03:28:40.308Z,100427.00
2023-03-21T03:33:51.671Z,100423.34
2023-03-21T03:38:56.115Z,100426.34
2023-03-21T03:44:00.070Z,100430.97
2023-03-21T03:49:06.577Z,100429.16
2023-03-21T03:54:12.798Z,100420.50
2023-03-21T03:59:19.395Z,100423.06
2023-03-21T04:04:35.110Z,100415.25
2023-03-21T04:09:44.647Z,100414.41
2023-03-21T04:14:51.919Z,100415.38
2023-03-21T04:20:05.448Z,100413.53
2023-03-21T04:25:21.902Z,100416.97
2023-03-21T04:30:34.090Z,100414.47
2023-03-21T04:35:45.956Z,100412.03
2023-03-21T04:40:51.816Z,100414.41
2023-03-21T04:45:54.814Z,100410.44
2023-03-21T04:50:57.699Z,100418.59
2023-03-21T04:56:01.829Z,100416.97
2023-03-21T05:01:05.786Z,100415.25
2023-03-21T05:06:09.548Z,100423.41
2023-03-21T05:11:13.780Z,100418.19
2023-03-21T05:16:16.588Z,100401.47
2023-03-21T05:21:20.418Z,100407.03
2023-03-21T05:26:27.003Z,100408.00
2023-03-21T05:31:43.257Z,100413.47
2023-03-21T05:36:49.610Z,100414.56
2023-03-21T05:41:54.642Z,100412.84
2023-03-21T05:46:57.607Z,100414.69
2023-03-21T05:52:07.660Z,100408.56
2023-03-21T05:57:12.131Z,100411.34
2023-03-21T06:02:28.199Z,100412.31
2023-03-21T06:07:35.419Z,100412.31
2023-03-21T06:12:39.935Z,100405.34
2023-03-21T06:17:55.811Z,100409.84
2023-03-21T06:22:58.904Z,100417.03
2023-03-21T06:28:03.184Z,100421.53
2023-03-21T06:33:07.091Z,100419.81
2023-03-21T06:38:10.000Z,100411.66
2023-03-21T06:43:16.105Z,100419.69
2023-03-21T06:48:19.790Z,100422.38
2023-03-21T06:53:27.369Z,100430.34
2023-03-21T06:58:50.163Z,100436.75
2023-03-21T07:04:20.824Z,100430.53
2023-03-21T07:09:28.028Z,100426.88
2023-03-21T07:14:35.205Z,100429.44
2023-03-21T07:19:38.243Z,100428.59
2023-03-21T07:24:41.095Z,100426.75
2023-03-21T07:29:47.249Z,100428.59
2023-03-21T07:34:50.233Z,100432.13
2023-03-21T07:39:53.264Z,100425.81
2023-03-21T07:44:57.932Z,100426.69
2023-03-21T07:50:00.756Z,100423.03
2023-03-21T07:55:04.890Z,100415.84
2023-03-21T08:00:11.092Z,100414.25
2023-03-21T08:05:19.353Z,100422.38
2023-03-21T08:10:22.281Z,100420.44
2023-03-21T08:15:26.505Z,100429.00
2023-03-21T08:20:29.249Z,100427.28
2023-03-21T08:25:32.293Z,100425.59
2023-03-21T08:30:36.426Z,100432.13
2023-03-21T08:35:41.140Z,100431.22
2023-03-21T08:40:44.400Z,100430.00
2023-03-21T08:45:48.733Z,100412.94
2023-03-21T08:50:51.503Z,100416.81
2023-03-21T08:55:54.347Z,100427.66
2023-03-21T09:00:58.555Z,100420.03
2023-03-21T09:06:02.682Z,100416.91
2023-03-21T09:11:06.051Z,100425.25
2023-03-21T09:16:11.000Z,100415.16
2023-03-21T09:21:14.660Z,100415.69
2023-03-21T09:26:17.718Z,100412.56
2023-03-21T09:31:22.885Z,100415.00
2023-03-21T09:36:26.239Z,100412.88
2023-03-21T09:42:04.629Z,100400.31
2023-03-21T09:47:14.096Z,100396.56
2023-03-21T09:52:20.293Z,100396.19
2023-03-21T09:57:29.763Z,100377.31
2023-03-21T10:02:38.687Z,100385.88
2023-03-21T10:07:42.537Z,100385.56
2023-03-21T10:12:46.088Z,100372.16
2023-03-21T10:17:54.444Z,100367.50
2023-03-21T10:22:57.871Z,100356.91
2023-03-21T10:28:01.319Z,100346.78
2023-03-21T10:33:09.642Z,100346.56
2023-03-21T10:38:16.953Z,100338.38
2023-03-21T10:43:31.148Z,100339.25
2023-03-21T10:48:40.629Z,100337.44
2023-03-21T10:53:47.577Z,100342.44
2023-03-21T10:58:52.698Z,100335.53
2023-03-21T11:03:59.404Z,100334.47
2023-03-21T11:09:04.669Z,100331.31
2023-03-21T11:14:09.453Z,100321.31
2023-03-21T11:19:17.727Z,100314.72
2023-03-21T11:24:20.822Z,100314.50
2023-03-21T11:29:29.026Z,100300.84
2023-03-21T11:34:43.649Z,100297.19
2023-03-21T11:39:46.825Z,100286.25
2023-03-21T11:44:49.602Z,100280.03
2023-03-21T11:50:04.213Z,100280.38
2023-03-21T11:55:15.932Z,100269.50
2023-03-21T12:00:22.372Z,100266.81
2023-03-21T12:05:28.129Z,100273.84
2023-03-21T12:10:37.479Z,100269.41
2023-03-21T12:15:42.898Z,100256.44
2023-03-21T12:20:47.834Z,100243.25
2023-03-21T12:25:54.898Z,100236.28
2023-03-21T12:31:00.008Z,100223.22
2023-03-21T12:36:22.491Z,100215.84
2023-03-21T12:41:27.381Z,100199.38
2023-03-21T12:46:33.887Z,100204.63
2023-03-21T12:51:40.860Z,100204.75
2023-03-21T12:56:48.234Z,100202.56
2023-03-21T13:01:52.624Z,100194.88
2023-03-21T13:06:56.718Z,100186.56
2023-03-21T13:11:59.759Z,100186.44
2023-03-21T13:17:03.306Z,100183.88
2023-03-21T13:22:08.935Z,100173.41
2023-03-21T13:27:20.008Z,100167.66
2023-03-21T13:32:26.502Z,100167.28
2023-03-21T13:37:33.358Z,100163.25
2023-03-21T13:42:36.557Z,100147.50
2023-03-21T13:47:42.145Z,100144.72
2023-03-21T13:52:51.128Z,100149.22
2023-03-21T13:57:54.366Z,100126.44
2023-03-21T14:02:59.416Z,100131.78
2023-03-21T14:08:17.189Z,100120.91
2023-03-21T14:13:25.927Z,100120.53
2023-03-21T14:18:52.225Z,100121.50
2023-03-21T14:24:01.034Z,100111.00
2023-03-21T14:29:07.162Z,100110.75
2023-03-21T14:34:12.678Z,100105.69
2023-03-21T14:39:18.978Z,100100.44
2023-03-21T14:44:25.585Z,100094.56
2023-03-21T14:49:29.140Z,100090.66
2023-03-21T14:54:33.759Z,100085.28
2023-03-21T14:59:37.965Z,100085.38
2023-03-21T15:04:41.343Z,100075.63
2023-03-21T15:09:45.788Z,100071.88
2023-03-21T15:14:48.692Z,100053.09
2023-03-21T15:19:51.568Z,100059.31
2023-03-21T15:24:58.362Z,100062.22
2023-03-21T15:30:01.384Z,100063.59
2023-03-21T15:35:09.384Z,100054.69
2023-03-21T15:40:22.268Z,100047.34
2023-03-21T15:45:26.189Z,100045.25
2023-03-21T15:50:33.756Z,100042.22
2023-03-21T15:55:43.600Z,100038.81
2023-03-21T16:00:52.754Z,100031.00
2023-03-21T16:06:05.287Z,100036.63
2023-03-21T16:11:13.226Z,100027.00
2023-03-21T16:16:17.571Z,100032.50
2023-03-21T16:21:21.505Z,100036.28
2023-03-21T16:26:27.504Z,100028.47
2023-03-21T16:31:32.062Z,100026.38
2023-03-21T16:36:36.547Z,100033.59
2023-03-21T16:41:40.919Z,100034.69
2023-03-21T16:46:43.803Z,100030.31
2023-03-21T16:51:46.613Z,100044.84
2023-03-21T16:56:51.531Z,100037.88
2023-03-21T17:01:54.483Z,100044.22
2023-03-21T17:06:57.308Z,100036.44
2023-03-21T17:12:01.813Z,100041.47
2023-03-21T17:17:04.902Z,100046.84
2023-03-21T17:22:07.759Z,100045.63
2023-03-21T17:27:14.853Z,100046.47
2023-03-21T17:32:18.337Z,100046.84
2023-03-21T17:37:21.957Z,100043.06
2023-03-21T17:42:26.362Z,100053.19
2023-03-21T17:47:31.091Z,100045.59
2023-03-21T17:52:34.500Z,100057.41
2023-03-21T17:57:38.694Z,100056.06
2023-03-21T18:02:41.777Z,100062.78
2023-03-21T18:13:09.394Z,100071.03
2023-03-21T18:18:12.341Z,100070.94
2023-03-21T18:23:15.425Z,100072.63
2023-03-21T18:28:21.242Z,100075.91
2023-03-21T18:33:24.360Z,100074.66
2023-03-21T18:38:27.579Z,100090.66
2023-03-21T18:48:55.244Z,100088.56
2023-03-21T18:54:00.839Z,100087.31
2023-03-21T18:59:05.135Z,100093.31
2023-03-21T19:04:21.274Z,100094.75
2023-03-21T19:09:31.250Z,100095.59
2023-03-21T19:14:36.168Z,100094.38
2023-03-21T19:19:39.376Z,100094.13
2023-03-21T19:24:43.004Z,100098.38
2023-03-21T19:30:02.892Z,100104.50
2023-03-21T19:35:10.090Z,100100.81
2023-03-21T19:40:13.668Z,100101.44
2023-03-21T19:45:18.050Z,100096.66
2023-03-21T19:50:49.344Z,100090.41
2023-03-21T19:55:44.463Z,100098.25
2023-03-21T20:00:48.857Z,100089.34
2023-03-21T20:05:51.629Z,100096.72
2023-03-21T20:10:54.647Z,100099.19
2023-03-21T20:16:03.735Z,100102.56
2023-03-21T20:21:16.971Z,100102.56
2023-03-21T20:26:21.040Z,100104.00
2023-03-21T20:31:25.308Z,100108.09
2023-03-21T20:36:43.889Z,100109.66
2023-03-21T20:41:46.855Z,100108.53
2023-03-21T20:46:51.234Z,100102.84
2023-03-21T20:57:17.942Z,100100.22
2023-03-21T21:08:41.039Z,100106.47
2023-03-21T21:13:45.345Z,100105.69
2023-03-21T21:18:48.958Z,100105.91
2023-03-21T21:23:53.067Z,100104.56
2023-03-21T21:28:58.010Z,100115.16
2023-03-21T21:34:03.050Z,100107.97
2023-03-21T21:39:08.102Z,100099.63
2023-03-21T21:44:11.017Z,100107.31
2023-03-21T21:49:13.790Z,100105.88
2023-03-21T21:54:19.015Z,100101.47
2023-03-21T21:59:24.327Z,100095.25
2023-03-21T22:04:28.536Z,100089.63
2023-03-21T22:09:32.785Z,100078.47
2023-03-21T22:14:35.819Z,100070.41
2023-03-21T22:19:40.209Z,100075.78
2023-03-21T22:24:44.692Z,100069.53
2023-03-21T22:29:47.437Z,100063.78
2023-03-21T22:34:50.265Z,100062.94
2023-03-21T22:39:54.401Z,100078.78
2023-03-21T22:44:57.118Z,100069.16
2023-03-21T22:49:59.959Z,100074.41
2023-03-21T22:55:04.266Z,100062.66
2023-03-21T23:00:13.071Z,100061.09
2023-03-21T23:05:15.993Z,100064.63
2023-03-21T23:10:20.439Z,100065.88
2023-03-21T23:15:23.379Z,100054.06
2023-03-21T23:20:26.154Z,100045.78
2023-03-21T23:25:30.306Z,100048.00
2023-03-21T23:30:33.117Z,100033.56
2023-03-21T23:35:38.210Z,100030.31
2023-03-21T23:40:42.609Z,100032.38
2023-03-21T23:45:45.939Z,100032.38
2023-03-21T23:50:49.006Z,100042.41
2023-03-21T23:55:53.142Z,100041.56
